sensor_id;sensor_type;location;lat;lon;timestamp;temperature;humidity
38265;DHT22;24062;47.480;8.768;2022-11-22T00:03:27;9.10;60.90
38265;DHT22;24062;47.480;8.768;2022-11-22T00:07:44;9.00;61.00
38265;DHT22;24062;47.480;8.768;2022-11-22T00:11:44;9.00;61.30
38265;DHT22;24062;47.480;8.768;2022-11-22T00:15:44;9.20;61.50
38265;DHT22;24062;47.480;8.768;2022-11-22T00:19:52;9.20;61.70
38265;DHT22;24062;47.480;8.768;2022-11-22T00:24:10;9.20;61.70
38265;DHT22;24062;47.480;8.768;2022-11-22T00:28:12;9.10;61.50
38265;DHT22;24062;47.480;8.768;2022-11-22T00:32:14;9.10;61.80
38265;DHT22;24062;47.480;8.768;2022-11-22T00:36:22;8.90;61.90
38265;DHT22;24062;47.480;8.768;2022-11-22T00:40:38;8.90;62.40
38265;DHT22;24062;47.480;8.768;2022-11-22T00:44:39;8.90;62.80
38265;DHT22;24062;47.480;8.768;2022-11-22T00:48:39;9.00;63.10
38265;DHT22;24062;47.480;8.768;2022-11-22T00:52:47;9.00;63.20
38265;DHT22;24062;47.480;8.768;2022-11-22T00:57:03;9.00;63.50
38265;DHT22;24062;47.480;8.768;2022-11-22T01:01:04;9.00;63.80
38265;DHT22;24062;47.480;8.768;2022-11-22T01:05:04;9.00;63.90
38265;DHT22;24062;47.480;8.768;2022-11-22T01:09:16;9.00;64.60
38265;DHT22;24062;47.480;8.768;2022-11-22T01:13:33;9.10;63.90
38265;DHT22;24062;47.480;8.768;2022-11-22T01:17:33;9.10;64.00
38265;DHT22;24062;47.480;8.768;2022-11-22T01:21:33;9.10;63.90
38265;DHT22;24062;47.480;8.768;2022-11-22T01:25:41;9.20;63.90
38265;DHT22;24062;47.480;8.768;2022-11-22T01:29:59;9.30;64.10
38265;DHT22;24062;47.480;8.768;2022-11-22T01:33:59;9.20;63.80
38265;DHT22;24062;47.480;8.768;2022-11-22T01:37:59;9.20;63.80
38265;DHT22;24062;47.480;8.768;2022-11-22T01:42:07;9.20;64.00
38265;DHT22;24062;47.480;8.768;2022-11-22T01:46:28;9.10;64.20
38265;DHT22;24062;47.480;8.768;2022-11-22T01:50:31;9.20;64.50
38265;DHT22;24062;47.480;8.768;2022-11-22T01:54:35;9.30;64.30
38265;DHT22;24062;47.480;8.768;2022-11-22T01:58:45;9.20;64.30
38265;DHT22;24062;47.480;8.768;2022-11-22T02:03:03;9.20;64.50
38265;DHT22;24062;47.480;8.768;2022-11-22T02:07:06;9.10;64.60
38265;DHT22;24062;47.480;8.768;2022-11-22T02:11:07;9.10;64.60
38265;DHT22;24062;47.480;8.768;2022-11-22T02:15:16;9.10;64.80
38265;DHT22;24062;47.480;8.768;2022-11-22T02:19:36;9.00;64.80
38265;DHT22;24062;47.480;8.768;2022-11-22T02:23:42;9.00;64.60
38265;DHT22;24062;47.480;8.768;2022-11-22T02:27:44;8.90;64.80
38265;DHT22;24062;47.480;8.768;2022-11-22T02:31:55;8.80;65.00
38265;DHT22;24062;47.480;8.768;2022-11-22T02:36:11;8.80;65.20
38265;DHT22;24062;47.480;8.768;2022-11-22T02:40:12;8.80;65.40
38265;DHT22;24062;47.480;8.768;2022-11-22T02:44:14;8.80;65.30
38265;DHT22;24062;47.480;8.768;2022-11-22T02:48:23;8.80;65.30
38265;DHT22;24062;47.480;8.768;2022-11-22T02:52:38;8.80;65.50
38265;DHT22;24062;47.480;8.768;2022-11-22T02:56:38;8.80;65.50
38265;DHT22;24062;47.480;8.768;2022-11-22T03:00:40;8.90;65.70
38265;DHT22;24062;47.480;8.768;2022-11-22T03:04:48;8.90;65.80
38265;DHT22;24062;47.480;8.768;2022-11-22T03:09:03;8.90;65.80
38265;DHT22;24062;47.480;8.768;2022-11-22T03:13:05;8.90;65.80
38265;DHT22;24062;47.480;8.768;2022-11-22T03:17:08;8.90;65.90
38265;DHT22;24062;47.480;8.768;2022-11-22T03:21:16;8.90;65.90
38265;DHT22;24062;47.480;8.768;2022-11-22T03:25:31;8.90;65.90
38265;DHT22;24062;47.480;8.768;2022-11-22T03:29:31;8.80;66.00
38265;DHT22;24062;47.480;8.768;2022-11-22T03:33:33;8.70;66.10
38265;DHT22;24062;47.480;8.768;2022-11-22T03:37:41;8.70;66.30
38265;DHT22;24062;47.480;8.768;2022-11-22T03:41:56;8.80;66.40
38265;DHT22;24062;47.480;8.768;2022-11-22T03:45:57;8.80;66.40
38265;DHT22;24062;47.480;8.768;2022-11-22T03:49:58;8.80;66.40
38265;DHT22;24062;47.480;8.768;2022-11-22T03:54:09;8.90;66.70
38265;DHT22;24062;47.480;8.768;2022-11-22T03:58:24;8.90;66.60
38265;DHT22;24062;47.480;8.768;2022-11-22T04:02:25;8.90;66.80
38265;DHT22;24062;47.480;8.768;2022-11-22T04:06:26;8.90;66.90
38265;DHT22;24062;47.480;8.768;2022-11-22T04:10:34;8.90;67.00
38265;DHT22;24062;47.480;8.768;2022-11-22T04:14:50;9.00;67.00
38265;DHT22;24062;47.480;8.768;2022-11-22T04:19:08;8.90;67.10
38265;DHT22;24062;47.480;8.768;2022-11-22T04:23:10;8.90;67.10
38265;DHT22;24062;47.480;8.768;2022-11-22T04:27:18;8.80;67.20
38265;DHT22;24062;47.480;8.768;2022-11-22T04:31:33;8.80;67.30
38265;DHT22;24062;47.480;8.768;2022-11-22T04:35:53;8.80;67.50
38265;DHT22;24062;47.480;8.768;2022-11-22T04:39:56;8.90;67.50
38265;DHT22;24062;47.480;8.768;2022-11-22T04:44:04;8.80;67.60
38265;DHT22;24062;47.480;8.768;2022-11-22T04:48:36;8.80;67.70
38265;DHT22;24062;47.480;8.768;2022-11-22T04:52:36;8.70;67.70
38265;DHT22;24062;47.480;8.768;2022-11-22T04:56:56;8.70;67.90
38265;DHT22;24062;47.480;8.768;2022-11-22T05:01:04;8.70;68.10
38265;DHT22;24062;47.480;8.768;2022-11-22T05:05:19;8.70;68.20
38265;DHT22;24062;47.480;8.768;2022-11-22T05:09:20;8.70;68.30
38265;DHT22;24062;47.480;8.768;2022-11-22T05:13:22;8.70;68.30
38265;DHT22;24062;47.480;8.768;2022-11-22T05:17:33;8.70;68.30
38265;DHT22;24062;47.480;8.768;2022-11-22T05:21:48;8.60;68.50
38265;DHT22;24062;47.480;8.768;2022-11-22T05:25:49;8.60;68.80
38265;DHT22;24062;47.480;8.768;2022-11-22T05:29:50;8.60;68.70
38265;DHT22;24062;47.480;8.768;2022-11-22T05:33:58;8.50;68.60
38265;DHT22;24062;47.480;8.768;2022-11-22T05:38:13;8.30;68.80
38265;DHT22;24062;47.480;8.768;2022-11-22T05:42:14;8.20;68.70
38265;DHT22;24062;47.480;8.768;2022-11-22T05:46:16;8.30;68.80
38265;DHT22;24062;47.480;8.768;2022-11-22T05:50:24;8.30;69.00
38265;DHT22;24062;47.480;8.768;2022-11-22T05:54:40;8.30;69.20
38265;DHT22;24062;47.480;8.768;2022-11-22T05:58:41;8.40;69.30
38265;DHT22;24062;47.480;8.768;2022-11-22T06:02:45;8.50;69.20
38265;DHT22;24062;47.480;8.768;2022-11-22T06:06:53;8.60;69.20
38265;DHT22;24062;47.480;8.768;2022-11-22T06:11:09;8.60;69.10
38265;DHT22;24062;47.480;8.768;2022-11-22T06:15:09;8.70;69.10
38265;DHT22;24062;47.480;8.768;2022-11-22T06:19:11;8.60;69.00
38265;DHT22;24062;47.480;8.768;2022-11-22T06:23:19;8.60;68.90
38265;DHT22;24062;47.480;8.768;2022-11-22T06:27:34;8.60;69.10
38265;DHT22;24062;47.480;8.768;2022-11-22T06:31:34;8.60;69.20
38265;DHT22;24062;47.480;8.768;2022-11-22T06:35:36;8.50;69.00
38265;DHT22;24062;47.480;8.768;2022-11-22T06:39:47;8.50;69.00
38265;DHT22;24062;47.480;8.768;2022-11-22T06:44:03;8.50;69.30
38265;DHT22;24062;47.480;8.768;2022-11-22T06:48:04;8.60;69.50
38265;DHT22;24062;47.480;8.768;2022-11-22T06:52:06;8.70;69.60
38265;DHT22;24062;47.480;8.768;2022-11-22T06:56:14;8.80;69.60
38265;DHT22;24062;47.480;8.768;2022-11-22T07:00:30;8.70;69.20
38265;DHT22;24062;47.480;8.768;2022-11-22T07:04:30;8.60;69.20
38265;DHT22;24062;47.480;8.768;2022-11-22T07:08:32;8.60;69.40
38265;DHT22;24062;47.480;8.768;2022-11-22T07:12:40;8.70;69.50
38265;DHT22;24062;47.480;8.768;2022-11-22T07:16:55;8.70;69.40
38265;DHT22;24062;47.480;8.768;2022-11-22T07:20:59;8.70;69.60
38265;DHT22;24062;47.480;8.768;2022-11-22T07:25:02;8.70;69.40
38265;DHT22;24062;47.480;8.768;2022-11-22T07:28:34;8.80;69.60
38265;DHT22;24062;47.480;8.768;2022-11-22T07:33:50;8.70;69.40
38265;DHT22;24062;47.480;8.768;2022-11-22T07:37:55;8.70;70.40
38265;DHT22;24062;47.480;8.768;2022-11-22T07:42:01;8.80;70.00
38265;DHT22;24062;47.480;8.768;2022-11-22T07:46:11;8.70;69.80
38265;DHT22;24062;47.480;8.768;2022-11-22T07:50:27;8.70;70.10
38265;DHT22;24062;47.480;8.768;2022-11-22T07:54:28;8.80;70.30
38265;DHT22;24062;47.480;8.768;2022-11-22T07:58:30;8.90;70.30
38265;DHT22;24062;47.480;8.768;2022-11-22T08:02:40;8.90;70.10
38265;DHT22;24062;47.480;8.768;2022-11-22T08:06:56;9.10;70.50
38265;DHT22;24062;47.480;8.768;2022-11-22T08:10:56;9.20;70.40
38265;DHT22;24062;47.480;8.768;2022-11-22T08:14:58;9.30;70.50
38265;DHT22;24062;47.480;8.768;2022-11-22T08:19:05;9.40;70.30
38265;DHT22;24062;47.480;8.768;2022-11-22T08:23:21;9.50;70.40
38265;DHT22;24062;47.480;8.768;2022-11-22T08:27:21;9.40;70.00
38265;DHT22;24062;47.480;8.768;2022-11-22T08:31:23;9.30;70.10
38265;DHT22;24062;47.480;8.768;2022-11-22T08:35:31;9.30;70.30
38265;DHT22;24062;47.480;8.768;2022-11-22T08:39:47;9.30;70.40
38265;DHT22;24062;47.480;8.768;2022-11-22T08:43:49;9.40;70.80
38265;DHT22;24062;47.480;8.768;2022-11-22T08:47:52;9.50;71.00
38265;DHT22;24062;47.480;8.768;2022-11-22T08:52:00;9.80;70.90
38265;DHT22;24062;47.480;8.768;2022-11-22T08:56:15;10.00;70.10
38265;DHT22;24062;47.480;8.768;2022-11-22T09:00:16;10.10;69.70
38265;DHT22;24062;47.480;8.768;2022-11-22T09:04:17;10.10;69.60
38265;DHT22;24062;47.480;8.768;2022-11-22T09:08:25;10.10;69.30
38265;DHT22;24062;47.480;8.768;2022-11-22T09:12:42;9.90;70.20
38265;DHT22;24062;47.480;8.768;2022-11-22T09:16:42;9.80;70.60
38265;DHT22;24062;47.480;8.768;2022-11-22T09:20:44;9.90;70.60
38265;DHT22;24062;47.480;8.768;2022-11-22T09:24:54;9.90;70.10
38265;DHT22;24062;47.480;8.768;2022-11-22T09:29:10;10.00;69.50
38265;DHT22;24062;47.480;8.768;2022-11-22T09:33:10;10.10;69.10
38265;DHT22;24062;47.480;8.768;2022-11-22T09:37:11;10.20;69.10
38265;DHT22;24062;47.480;8.768;2022-11-22T09:41:32;10.30;69.40
38265;DHT22;24062;47.480;8.768;2022-11-22T09:46:06;10.40;69.30
38265;DHT22;24062;47.480;8.768;2022-11-22T09:50:10;10.60;69.20
38265;DHT22;24062;47.480;8.768;2022-11-22T09:54:17;10.60;68.70
38265;DHT22;24062;47.480;8.768;2022-11-22T09:58:27;10.70;68.70
38265;DHT22;24062;47.480;8.768;2022-11-22T10:02:46;10.80;69.60
38265;DHT22;24062;47.480;8.768;2022-11-22T10:06:49;11.00;68.90
38265;DHT22;24062;47.480;8.768;2022-11-22T10:10:54;11.00;68.30
38265;DHT22;24062;47.480;8.768;2022-11-22T10:15:06;11.00;68.20
38265;DHT22;24062;47.480;8.768;2022-11-22T10:19:22;11.10;68.30
38265;DHT22;24062;47.480;8.768;2022-11-22T10:23:25;11.10;68.10
38265;DHT22;24062;47.480;8.768;2022-11-22T10:27:29;11.20;68.00
38265;DHT22;24062;47.480;8.768;2022-11-22T10:31:38;11.10;67.50
38265;DHT22;24062;47.480;8.768;2022-11-22T10:36:02;11.20;68.00
38265;DHT22;24062;47.480;8.768;2022-11-22T10:40:07;11.20;67.40
38265;DHT22;24062;47.480;8.768;2022-11-22T10:44:15;11.20;66.70
38265;DHT22;24062;47.480;8.768;2022-11-22T10:48:29;11.00;66.50
38265;DHT22;24062;47.480;8.768;2022-11-22T10:52:52;11.10;66.70
38265;DHT22;24062;47.480;8.768;2022-11-22T10:56:57;11.10;66.50
38265;DHT22;24062;47.480;8.768;2022-11-22T11:01:04;11.20;66.90
38265;DHT22;24062;47.480;8.768;2022-11-22T11:05:15;11.40;66.40
38265;DHT22;24062;47.480;8.768;2022-11-22T11:09:32;11.40;65.80
38265;DHT22;24062;47.480;8.768;2022-11-22T11:13:36;11.30;65.40
38265;DHT22;24062;47.480;8.768;2022-11-22T11:17:39;11.30;65.40
38265;DHT22;24062;47.480;8.768;2022-11-22T11:21:50;11.40;65.00
38265;DHT22;24062;47.480;8.768;2022-11-22T11:30:35;11.70;65.60
38265;DHT22;24062;47.480;8.768;2022-11-22T11:34:39;11.80;65.10
38265;DHT22;24062;47.480;8.768;2022-11-22T11:38:49;11.90;65.00
38265;DHT22;24062;47.480;8.768;2022-11-22T11:43:17;12.00;64.80
38265;DHT22;24062;47.480;8.768;2022-11-22T11:47:18;12.30;65.60
38265;DHT22;24062;47.480;8.768;2022-11-22T11:51:28;12.50;64.70
38265;DHT22;24062;47.480;8.768;2022-11-22T11:55:37;12.40;63.70
38265;DHT22;24062;47.480;8.768;2022-11-22T11:59:53;12.30;63.60
38265;DHT22;24062;47.480;8.768;2022-11-22T12:03:56;12.40;63.40
38265;DHT22;24062;47.480;8.768;2022-11-22T12:07:59;12.60;63.60
38265;DHT22;24062;47.480;8.768;2022-11-22T12:12:12;12.70;63.40
38265;DHT22;24062;47.480;8.768;2022-11-22T12:16:29;12.60;62.30
38265;DHT22;24062;47.480;8.768;2022-11-22T12:20:34;12.30;61.30
38265;DHT22;24062;47.480;8.768;2022-11-22T12:24:38;12.20;61.20
38265;DHT22;24062;47.480;8.768;2022-11-22T12:28:47;12.20;61.70
38265;DHT22;24062;47.480;8.768;2022-11-22T12:33:02;12.20;60.90
38265;DHT22;24062;47.480;8.768;2022-11-22T12:37:05;12.30;60.80
38265;DHT22;24062;47.480;8.768;2022-11-22T12:41:08;12.60;61.50
38265;DHT22;24062;47.480;8.768;2022-11-22T12:45:20;12.70;60.60
38265;DHT22;24062;47.480;8.768;2022-11-22T12:49:38;12.30;59.20
38265;DHT22;24062;47.480;8.768;2022-11-22T12:53:41;12.30;59.80
38265;DHT22;24062;47.480;8.768;2022-11-22T12:57:47;12.30;59.70
38265;DHT22;24062;47.480;8.768;2022-11-22T13:01:58;12.40;59.50
38265;DHT22;24062;47.480;8.768;2022-11-22T13:06:15;12.40;59.60
38265;DHT22;24062;47.480;8.768;2022-11-22T13:10:19;12.60;59.80
38265;DHT22;24062;47.480;8.768;2022-11-22T13:14:25;12.60;59.30
38265;DHT22;24062;47.480;8.768;2022-11-22T13:18:34;12.50;58.80
38265;DHT22;24062;47.480;8.768;2022-11-22T13:22:55;12.20;58.70
38265;DHT22;24062;47.480;8.768;2022-11-22T13:27:00;12.00;58.30
38265;DHT22;24062;47.480;8.768;2022-11-22T13:31:04;11.50;58.10
38265;DHT22;24062;47.480;8.768;2022-11-22T13:35:18;11.40;58.60
38265;DHT22;24062;47.480;8.768;2022-11-22T13:39:37;11.60;59.00
38265;DHT22;24062;47.480;8.768;2022-11-22T13:43:49;11.60;58.40
38265;DHT22;24062;47.480;8.768;2022-11-22T13:47:51;11.90;59.00
38265;DHT22;24062;47.480;8.768;2022-11-22T13:51:59;12.10;58.50
38265;DHT22;24062;47.480;8.768;2022-11-22T14:00:40;11.90;57.80
38265;DHT22;24062;47.480;8.768;2022-11-22T14:04:42;11.80;57.30
38265;DHT22;24062;47.480;8.768;2022-11-22T14:13:28;11.80;57.90
38265;DHT22;24062;47.480;8.768;2022-11-22T14:17:34;11.70;57.20
38265;DHT22;24062;47.480;8.768;2022-11-22T14:21:44;11.60;56.90
38265;DHT22;24062;47.480;8.768;2022-11-22T14:26:02;11.30;56.90
38265;DHT22;24062;47.480;8.768;2022-11-22T14:30:20;11.00;57.10
38265;DHT22;24062;47.480;8.768;2022-11-22T14:34:21;11.00;57.20
38265;DHT22;24062;47.480;8.768;2022-11-22T14:42:46;10.90;57.10
38265;DHT22;24062;47.480;8.768;2022-11-22T14:47:03;10.80;56.90
38265;DHT22;24062;47.480;8.768;2022-11-22T14:51:06;10.70;57.10
38265;DHT22;24062;47.480;8.768;2022-11-22T14:55:11;10.70;57.10
38265;DHT22;24062;47.480;8.768;2022-11-22T14:59:32;10.60;56.80
38265;DHT22;24062;47.480;8.768;2022-11-22T15:03:53;10.50;57.00
38265;DHT22;24062;47.480;8.768;2022-11-22T15:08:01;10.50;57.10
38265;DHT22;24062;47.480;8.768;2022-11-22T15:12:14;10.50;56.90
38265;DHT22;24062;47.480;8.768;2022-11-22T15:16:26;10.50;57.10
38265;DHT22;24062;47.480;8.768;2022-11-22T15:20:42;10.50;57.10
38265;DHT22;24062;47.480;8.768;2022-11-22T15:24:42;10.50;56.90
38265;DHT22;24062;47.480;8.768;2022-11-22T15:28:47;10.30;56.80
38265;DHT22;24062;47.480;8.768;2022-11-22T15:32:56;10.20;56.70
38265;DHT22;24062;47.480;8.768;2022-11-22T15:37:14;10.10;56.70
38265;DHT22;24062;47.480;8.768;2022-11-22T15:41:21;10.00;56.80
38265;DHT22;24062;47.480;8.768;2022-11-22T15:45:24;9.90;57.60
38265;DHT22;24062;47.480;8.768;2022-11-22T15:49:34;9.90;57.70
38265;DHT22;24062;47.480;8.768;2022-11-22T15:58:17;9.70;57.50
38265;DHT22;24062;47.480;8.768;2022-11-22T16:02:18;9.70;57.60
38265;DHT22;24062;47.480;8.768;2022-11-22T16:06:28;9.70;57.70
38265;DHT22;24062;47.480;8.768;2022-11-22T16:10:46;9.70;58.20
38265;DHT22;24062;47.480;8.768;2022-11-22T16:14:48;9.70;57.60
38265;DHT22;24062;47.480;8.768;2022-11-22T16:18:49;9.70;57.60
38265;DHT22;24062;47.480;8.768;2022-11-22T16:23:12;9.70;57.50
38265;DHT22;24062;47.480;8.768;2022-11-22T16:27:27;9.60;57.50
38265;DHT22;24062;47.480;8.768;2022-11-22T16:31:28;9.70;57.60
38265;DHT22;24062;47.480;8.768;2022-11-22T16:35:29;9.70;57.60
38265;DHT22;24062;47.480;8.768;2022-11-22T16:39:38;9.80;57.60
38265;DHT22;24062;47.480;8.768;2022-11-22T16:43:54;9.70;57.70
38265;DHT22;24062;47.480;8.768;2022-11-22T16:47:55;9.70;57.60
38265;DHT22;24062;47.480;8.768;2022-11-22T16:51:55;9.70;57.70
38265;DHT22;24062;47.480;8.768;2022-11-22T16:56:05;9.70;57.70
38265;DHT22;24062;47.480;8.768;2022-11-22T17:00:20;9.60;57.70
38265;DHT22;24062;47.480;8.768;2022-11-22T17:04:22;9.60;57.80
38265;DHT22;24062;47.480;8.768;2022-11-22T17:08:25;9.60;57.80
38265;DHT22;24062;47.480;8.768;2022-11-22T17:12:34;9.50;57.80
38265;DHT22;24062;47.480;8.768;2022-11-22T17:16:50;9.50;57.70
38265;DHT22;24062;47.480;8.768;2022-11-22T17:20:50;9.50;57.70
38265;DHT22;24062;47.480;8.768;2022-11-22T17:24:50;9.50;57.80
38265;DHT22;24062;47.480;8.768;2022-11-22T17:28:59;9.50;57.80
38265;DHT22;24062;47.480;8.768;2022-11-22T17:33:15;9.40;57.80
38265;DHT22;24062;47.480;8.768;2022-11-22T17:37:15;9.40;57.80
38265;DHT22;24062;47.480;8.768;2022-11-22T17:41:15;9.30;57.90
38265;DHT22;24062;47.480;8.768;2022-11-22T17:45:27;9.20;58.00
38265;DHT22;24062;47.480;8.768;2022-11-22T17:49:43;9.20;58.10
38265;DHT22;24062;47.480;8.768;2022-11-22T17:53:43;9.20;58.10
38265;DHT22;24062;47.480;8.768;2022-11-22T17:57:43;9.20;58.10
38265;DHT22;24062;47.480;8.768;2022-11-22T18:01:53;9.30;58.30
38265;DHT22;24062;47.480;8.768;2022-11-22T18:06:08;9.20;58.10
38265;DHT22;24062;47.480;8.768;2022-11-22T18:11:22;9.20;58.30
38265;DHT22;24062;47.480;8.768;2022-11-22T18:15:22;9.30;58.40
38265;DHT22;24062;47.480;8.768;2022-11-22T18:19:31;9.30;58.30
38265;DHT22;24062;47.480;8.768;2022-11-22T18:23:47;9.30;58.30
38265;DHT22;24062;47.480;8.768;2022-11-22T18:27:48;9.30;58.40
38265;DHT22;24062;47.480;8.768;2022-11-22T18:31:50;9.20;58.50
38265;DHT22;24062;47.480;8.768;2022-11-22T18:36:00;9.30;58.50
38265;DHT22;24062;47.480;8.768;2022-11-22T18:40:15;9.30;58.50
38265;DHT22;24062;47.480;8.768;2022-11-22T18:44:16;9.30;58.50
38265;DHT22;24062;47.480;8.768;2022-11-22T18:48:16;9.10;58.40
38265;DHT22;24062;47.480;8.768;2022-11-22T18:52:25;9.10;58.60
38265;DHT22;24062;47.480;8.768;2022-11-22T18:56:40;9.00;59.20
38265;DHT22;24062;47.480;8.768;2022-11-22T19:00:41;8.90;58.60
38265;DHT22;24062;47.480;8.768;2022-11-22T19:04:41;8.80;58.70
38265;DHT22;24062;47.480;8.768;2022-11-22T19:08:53;8.70;58.70
38265;DHT22;24062;47.480;8.768;2022-11-22T19:13:08;8.60;59.00
38265;DHT22;24062;47.480;8.768;2022-11-22T19:17:09;8.70;59.10
38265;DHT22;24062;47.480;8.768;2022-11-22T19:21:10;8.60;58.90
38265;DHT22;24062;47.480;8.768;2022-11-22T19:25:19;8.60;58.80
38265;DHT22;24062;47.480;8.768;2022-11-22T19:29:34;8.50;59.40
38265;DHT22;24062;47.480;8.768;2022-11-22T19:33:35;8.50;58.80
38265;DHT22;24062;47.480;8.768;2022-11-22T19:37:35;8.60;59.00
38265;DHT22;24062;47.480;8.768;2022-11-22T19:41:44;8.60;58.90
38265;DHT22;24062;47.480;8.768;2022-11-22T19:46:00;8.50;59.00
38265;DHT22;24062;47.480;8.768;2022-11-22T19:50:02;8.50;59.10
38265;DHT22;24062;47.480;8.768;2022-11-22T19:54:03;8.60;59.30
38265;DHT22;24062;47.480;8.768;2022-11-22T19:58:13;8.70;59.40
38265;DHT22;24062;47.480;8.768;2022-11-22T20:02:28;8.80;59.50
38265;DHT22;24062;47.480;8.768;2022-11-22T20:06:28;8.80;59.40
38265;DHT22;24062;47.480;8.768;2022-11-22T20:10:29;8.70;59.40
38265;DHT22;24062;47.480;8.768;2022-11-22T20:14:39;8.70;59.50
38265;DHT22;24062;47.480;8.768;2022-11-22T20:18:55;8.80;59.60
38265;DHT22;24062;47.480;8.768;2022-11-22T20:22:55;8.90;59.60
38265;DHT22;24062;47.480;8.768;2022-11-22T20:26:55;8.90;59.60
38265;DHT22;24062;47.480;8.768;2022-11-22T20:31:08;8.90;59.60
38265;DHT22;24062;47.480;8.768;2022-11-22T20:35:24;9.00;59.60
38265;DHT22;24062;47.480;8.768;2022-11-22T20:39:24;9.00;59.50
38265;DHT22;24062;47.480;8.768;2022-11-22T20:43:24;8.90;59.40
38265;DHT22;24062;47.480;8.768;2022-11-22T20:47:33;8.80;59.50
38265;DHT22;24062;47.480;8.768;2022-11-22T20:51:49;8.80;59.50
38265;DHT22;24062;47.480;8.768;2022-11-22T20:55:49;8.60;59.20
38265;DHT22;24062;47.480;8.768;2022-11-22T20:59:50;8.50;59.20
38265;DHT22;24062;47.480;8.768;2022-11-22T21:03:59;8.50;59.50
38265;DHT22;24062;47.480;8.768;2022-11-22T21:08:14;8.50;59.60
38265;DHT22;24062;47.480;8.768;2022-11-22T21:12:16;8.60;59.70
38265;DHT22;24062;47.480;8.768;2022-11-22T21:16:19;8.60;59.70
38265;DHT22;24062;47.480;8.768;2022-11-22T21:20:28;8.70;59.80
38265;DHT22;24062;47.480;8.768;2022-11-22T21:24:44;8.70;59.90
38265;DHT22;24062;47.480;8.768;2022-11-22T21:28:44;8.70;59.80
38265;DHT22;24062;47.480;8.768;2022-11-22T21:32:44;8.70;59.90
38265;DHT22;24062;47.480;8.768;2022-11-22T21:36:53;8.70;59.90
38265;DHT22;24062;47.480;8.768;2022-11-22T21:41:11;8.70;60.10
38265;DHT22;24062;47.480;8.768;2022-11-22T21:45:11;8.60;60.10
38265;DHT22;24062;47.480;8.768;2022-11-22T21:49:12;8.70;60.30
38265;DHT22;24062;47.480;8.768;2022-11-22T21:53:24;8.70;60.40
38265;DHT22;24062;47.480;8.768;2022-11-22T21:57:41;8.70;60.30
38265;DHT22;24062;47.480;8.768;2022-11-22T22:01:41;8.70;60.30
38265;DHT22;24062;47.480;8.768;2022-11-22T22:05:46;8.80;60.50
38265;DHT22;24062;47.480;8.768;2022-11-22T22:09:55;8.80;60.50
38265;DHT22;24062;47.480;8.768;2022-11-22T22:14:10;8.80;60.40
38265;DHT22;24062;47.480;8.768;2022-11-22T22:18:10;8.80;60.50
38265;DHT22;24062;47.480;8.768;2022-11-22T22:22:11;8.70;60.40
38265;DHT22;24062;47.480;8.768;2022-11-22T22:26:20;8.70;60.50
38265;DHT22;24062;47.480;8.768;2022-11-22T22:30:35;8.70;60.60
38265;DHT22;24062;47.480;8.768;2022-11-22T22:34:37;8.70;60.60
38265;DHT22;24062;47.480;8.768;2022-11-22T22:38:39;8.60;60.60
38265;DHT22;24062;47.480;8.768;2022-11-22T22:42:48;8.60;60.80
38265;DHT22;24062;47.480;8.768;2022-11-22T22:47:03;8.70;60.80
38265;DHT22;24062;47.480;8.768;2022-11-22T22:51:04;8.70;61.00
38265;DHT22;24062;47.480;8.768;2022-11-22T22:55:05;8.60;61.00
38265;DHT22;24062;47.480;8.768;2022-11-22T22:59:14;8.60;61.10
38265;DHT22;24062;47.480;8.768;2022-11-22T23:03:30;8.60;61.10
38265;DHT22;24062;47.480;8.768;2022-11-22T23:07:30;8.60;61.30
38265;DHT22;24062;47.480;8.768;2022-11-22T23:11:32;8.60;61.40
38265;DHT22;24062;47.480;8.768;2022-11-22T23:16:00;8.60;61.50
38265;DHT22;24062;47.480;8.768;2022-11-22T23:20:16;8.60;61.60
38265;DHT22;24062;47.480;8.768;2022-11-22T23:24:16;8.60;61.60
38265;DHT22;24062;47.480;8.768;2022-11-22T23:28:17;8.70;61.60
38265;DHT22;24062;47.480;8.768;2022-11-22T23:32:27;8.70;61.70
38265;DHT22;24062;47.480;8.768;2022-11-22T23:36:43;8.70;61.50
38265;DHT22;24062;47.480;8.768;2022-11-22T23:40:43;8.60;61.60
38265;DHT22;24062;47.480;8.768;2022-11-22T23:44:50;8.60;61.70
38265;DHT22;24062;47.480;8.768;2022-11-22T23:49:00;8.60;61.80
38265;DHT22;24062;47.480;8.768;2022-11-22T23:53:15;8.50;61.70
38265;DHT22;24062;47.480;8.768;2022-11-22T23:57:17;8.40;61.90
